createdAt,value
2022-10-17T00:00:24.662Z,6.50
2022-10-17T00:02:52.490Z,6.33
2022-10-17T00:05:20.224Z,6.87
2022-10-17T00:07:47.985Z,6.87
2022-10-17T00:10:15.704Z,10.37
2022-10-17T00:12:43.638Z,7.67
2022-10-17T00:15:16.351Z,5.77
2022-10-17T00:17:44.082Z,6.80
2022-10-17T00:20:13.091Z,6.73
2022-10-17T00:22:40.941Z,8.17
2022-10-17T00:25:09.529Z,5.43
2022-10-17T00:27:37.550Z,7.10
2022-10-17T00:30:06.545Z,6.37
2022-10-17T00:32:35.592Z,7.00
2022-10-17T00:35:03.688Z,10.60
2022-10-17T00:37:31.532Z,6.37
2022-10-17T00:39:59.393Z,7.60
2022-10-17T00:42:28.450Z,5.57
2022-10-17T00:45:13.892Z,9.33
2022-10-17T00:47:45.876Z,5.77
2022-10-17T00:50:15.716Z,8.87
2022-10-17T00:52:45.383Z,6.03
2022-10-17T00:55:18.009Z,6.23
2022-10-17T00:57:46.847Z,7.43
2022-10-17T01:00:15.811Z,6.37
2022-10-17T01:02:45.546Z,5.73
2022-10-17T01:05:14.158Z,5.43
2022-10-17T01:07:43.343Z,6.03
2022-10-17T01:10:13.309Z,10.17
2022-10-17T01:12:53.785Z,6.93
2022-10-17T01:15:33.749Z,8.83
2022-10-17T01:18:14.215Z,7.30
2022-10-17T01:21:13.778Z,9.13
2022-10-17T01:24:11.742Z,6.03
2022-10-17T01:26:54.202Z,8.47
2022-10-17T01:29:39.785Z,7.50
2022-10-17T01:32:17.381Z,6.33
2022-10-17T01:34:54.141Z,5.17
2022-10-17T01:37:29.434Z,6.43
2022-10-17T01:40:04.539Z,6.17
2022-10-17T01:42:37.463Z,12.03
2022-10-17T01:45:11.615Z,7.27
2022-10-17T01:47:42.716Z,7.60
2022-10-17T01:50:16.416Z,6.50
2022-10-17T01:52:47.475Z,6.57
2022-10-17T01:55:20.026Z,13.47
2022-10-17T01:57:52.050Z,5.27
2022-10-17T02:00:23.371Z,11.43
2022-10-17T02:02:57.639Z,6.17
2022-10-17T02:05:28.861Z,8.03
2022-10-17T02:07:56.594Z,5.40
2022-10-17T02:10:33.695Z,5.67
2022-10-17T02:13:06.005Z,6.83
2022-10-17T02:15:58.533Z,5.90
2022-10-17T02:18:48.112Z,7.63
2022-10-17T02:21:25.330Z,8.00
2022-10-17T02:24:01.701Z,5.33
2022-10-17T02:26:34.824Z,8.93
2022-10-17T02:29:09.530Z,5.23
2022-10-17T02:31:41.572Z,6.43
2022-10-17T02:34:16.208Z,7.43
2022-10-17T02:36:47.858Z,6.47
2022-10-17T02:39:17.403Z,8.63
2022-10-17T02:41:47.079Z,7.93
2022-10-17T02:44:15.482Z,5.17
2022-10-17T02:46:45.942Z,5.33
2022-10-17T02:49:21.999Z,5.10
2022-10-17T02:51:56.480Z,4.97
2022-10-17T02:54:34.708Z,5.00
2022-10-17T02:57:08.232Z,4.07
2022-10-17T02:59:38.249Z,7.97
2022-10-17T03:02:07.169Z,6.93
2022-10-17T03:04:36.495Z,7.13
2022-10-17T03:07:04.449Z,5.70
2022-10-17T03:09:32.095Z,4.97
2022-10-17T03:11:59.835Z,5.00
2022-10-17T03:14:27.474Z,4.00
2022-10-17T03:16:55.158Z,3.63
2022-10-17T03:19:22.829Z,6.10
2022-10-17T03:21:51.816Z,10.27
2022-10-17T03:24:19.514Z,5.23
2022-10-17T03:29:19.947Z,5.53
2022-10-17T03:31:47.705Z,5.70
2022-10-17T03:34:16.732Z,4.87
2022-10-17T03:36:44.555Z,4.43
2022-10-17T03:39:14.001Z,5.10
2022-10-17T03:41:41.727Z,5.80
2022-10-17T03:44:09.510Z,4.07
2022-10-17T03:46:37.293Z,4.33
2022-10-17T03:49:05.048Z,5.50
2022-10-17T03:51:34.499Z,5.00
2022-10-17T03:54:02.186Z,9.33
2022-10-17T03:56:31.195Z,7.07
2022-10-17T03:58:59.138Z,6.47
2022-10-17T04:01:26.932Z,5.77
2022-10-17T04:03:56.590Z,6.37
2022-10-17T04:06:24.780Z,6.53
2022-10-17T04:08:52.573Z,4.20
2022-10-17T04:11:22.063Z,4.40
2022-10-17T04:13:54.441Z,6.07
2022-10-17T04:16:22.813Z,6.47
2022-10-17T04:18:54.548Z,5.57
2022-10-17T04:21:23.473Z,5.63
2022-10-17T04:23:54.647Z,5.77
2022-10-17T04:26:22.511Z,5.57
2022-10-17T04:28:51.877Z,5.03
2022-10-17T04:31:20.059Z,5.13
2022-10-17T04:33:49.111Z,7.63
2022-10-17T04:36:18.428Z,4.63
2022-10-17T04:38:46.436Z,5.53
2022-10-17T04:41:15.658Z,5.27
2022-10-17T04:43:46.933Z,4.70
2022-10-17T04:46:19.409Z,6.90
2022-10-17T04:48:47.185Z,4.67
2022-10-17T04:51:16.604Z,6.33
2022-10-17T04:53:45.247Z,5.67
2022-10-17T04:56:15.733Z,5.70
2022-10-17T04:58:44.560Z,6.77
2022-10-17T05:01:15.137Z,5.93
2022-10-17T05:03:44.929Z,4.70
2022-10-17T05:06:14.683Z,6.63
2022-10-17T05:08:43.236Z,5.23
2022-10-17T05:11:17.819Z,6.27
2022-10-17T05:13:45.588Z,5.03
2022-10-17T05:16:13.349Z,4.77
2022-10-17T05:18:41.045Z,6.60
2022-10-17T05:21:10.469Z,7.00
2022-10-17T05:23:38.105Z,6.10
2022-10-17T05:26:06.011Z,5.03
2022-10-17T05:28:34.608Z,5.70
2022-10-17T05:31:04.349Z,5.33
2022-10-17T05:33:32.599Z,5.30
2022-10-17T05:36:01.030Z,5.93
2022-10-17T05:38:30.162Z,8.50
2022-10-17T05:40:59.099Z,8.80
2022-10-17T05:43:27.453Z,5.47
2022-10-17T05:45:55.709Z,7.07
2022-10-17T05:48:24.272Z,5.33
2022-10-17T05:50:59.111Z,5.50
2022-10-17T05:53:26.994Z,5.33
2022-10-17T05:56:01.482Z,7.27
2022-10-17T05:58:49.364Z,7.67
2022-10-17T06:01:17.826Z,4.80
2022-10-17T06:03:46.095Z,5.87
2022-10-17T06:06:15.611Z,8.33
2022-10-17T06:08:44.317Z,5.50
2022-10-17T06:11:14.387Z,6.20
2022-10-17T06:13:42.786Z,4.97
2022-10-17T06:16:10.704Z,8.70
2022-10-17T06:18:38.485Z,6.97
2022-10-17T06:21:08.320Z,5.40
2022-10-17T06:23:36.009Z,6.50
2022-10-17T06:26:06.101Z,5.43
2022-10-17T06:28:35.877Z,6.40
2022-10-17T06:31:06.374Z,5.50
2022-10-17T06:33:34.198Z,5.10
2022-10-17T06:36:02.287Z,5.90
2022-10-17T06:38:30.144Z,6.20
2022-10-17T06:41:04.960Z,5.33
2022-10-17T06:43:32.699Z,6.40
2022-10-17T06:46:01.962Z,8.27
2022-10-17T06:48:29.869Z,6.27
2022-10-17T06:51:00.173Z,4.40
2022-10-17T06:53:28.904Z,5.70
2022-10-17T06:56:01.334Z,5.30
2022-10-17T06:58:29.106Z,6.47
2022-10-17T07:01:01.785Z,4.60
2022-10-17T07:03:30.184Z,5.77
2022-10-17T07:05:58.524Z,3.87
2022-10-17T07:08:27.416Z,4.43
2022-10-17T07:10:55.709Z,3.97
2022-10-17T07:13:24.308Z,4.10
2022-10-17T07:15:52.130Z,6.33
2022-10-17T07:18:21.231Z,3.60
2022-10-17T07:20:54.448Z,7.73
2022-10-17T07:23:22.399Z,5.17
2022-10-17T07:25:50.146Z,5.47
2022-10-17T07:28:18.306Z,4.70
2022-10-17T07:30:49.310Z,3.50
2022-10-17T07:33:18.462Z,4.53
2022-10-17T07:35:47.526Z,4.20
2022-10-17T07:38:15.282Z,6.30
2022-10-17T07:40:43.037Z,6.38
2022-10-17T07:43:10.888Z,6.40
2022-10-17T07:45:38.550Z,4.22
2022-10-17T07:48:06.676Z,4.47
2022-10-17T07:50:34.439Z,4.95
2022-10-17T07:53:03.635Z,4.53
2022-10-17T07:55:31.459Z,4.45
2022-10-17T07:58:00.421Z,2.75
2022-10-17T08:00:28.208Z,2.85
2022-10-17T08:02:55.878Z,3.35
2022-10-17T08:05:23.687Z,4.20
2022-10-17T08:07:51.557Z,4.20
2022-10-17T08:10:21.391Z,6.30
2022-10-17T08:12:49.115Z,3.78
2022-10-17T08:15:16.915Z,4.40
2022-10-17T08:17:44.589Z,4.53
2022-10-17T08:20:13.095Z,3.50
2022-10-17T08:22:40.988Z,3.10
2022-10-17T08:25:09.617Z,4.70
2022-10-17T08:27:38.631Z,3.38
2022-10-17T08:30:07.290Z,4.40
2022-10-17T08:32:34.989Z,4.10
2022-10-17T08:35:02.702Z,3.45
2022-10-17T08:37:31.735Z,4.72
2022-10-17T08:39:59.904Z,7.80
2022-10-17T08:42:42.949Z,3.40
2022-10-17T08:45:21.938Z,4.65
2022-10-17T08:47:54.249Z,3.97
2022-10-17T08:50:30.934Z,4.20
2022-10-17T08:53:04.548Z,4.10
2022-10-17T08:55:38.845Z,4.45
2022-10-17T08:58:15.453Z,7.63
2022-10-17T09:00:50.279Z,6.90
2022-10-17T09:03:32.364Z,6.20
2022-10-17T09:06:12.537Z,4.82
2022-10-17T09:08:47.365Z,9.98
2022-10-17T09:11:26.335Z,4.03
2022-10-17T09:14:06.293Z,5.03
2022-10-17T09:17:00.812Z,5.60
2022-10-17T09:19:33.177Z,4.30
2022-10-17T09:22:04.215Z,3.60
2022-10-17T09:24:40.533Z,4.93
2022-10-17T09:27:21.140Z,4.10
2022-10-17T09:29:55.694Z,4.65
2022-10-17T09:32:26.955Z,3.17
2022-10-17T09:34:55.285Z,3.50
2022-10-17T09:37:30.774Z,5.53
2022-10-17T09:39:59.243Z,4.38
2022-10-17T09:42:28.635Z,4.50
2022-10-17T09:45:06.103Z,5.20
2022-10-17T09:47:41.469Z,8.25
2022-10-17T09:50:19.362Z,4.85
2022-10-17T09:52:49.381Z,5.88
2022-10-17T09:55:21.183Z,5.63
2022-10-17T09:57:55.854Z,5.82
2022-10-17T10:00:25.531Z,5.22
2022-10-17T10:03:10.375Z,4.82
2022-10-17T10:05:38.181Z,5.13
2022-10-17T10:08:13.600Z,6.30
2022-10-17T10:10:43.212Z,3.72
2022-10-17T10:13:21.198Z,4.13
2022-10-17T10:15:50.833Z,4.75
2022-10-17T10:18:35.747Z,6.20
2022-10-17T10:21:12.848Z,5.25
2022-10-17T10:23:42.057Z,3.83
2022-10-17T10:26:22.226Z,3.65
2022-10-17T10:28:57.707Z,7.63
2022-10-17T10:31:32.774Z,7.28
2022-10-17T10:34:14.890Z,4.72
2022-10-17T10:36:51.154Z,3.88
2022-10-17T10:39:30.559Z,4.10
2022-10-17T10:41:58.430Z,4.53
2022-10-17T10:44:29.484Z,4.57
2022-10-17T10:47:26.278Z,4.63
2022-10-17T10:50:18.516Z,7.75
2022-10-17T10:52:51.884Z,5.50
2022-10-17T10:55:26.424Z,4.82
2022-10-17T10:58:11.960Z,8.73
2022-10-17T11:00:40.395Z,5.10
2022-10-17T11:03:16.060Z,8.25
2022-10-17T11:05:49.250Z,5.55
2022-10-17T11:08:24.585Z,5.70
2022-10-17T11:11:18.171Z,6.70
2022-10-17T11:13:51.892Z,9.95
2022-10-17T11:16:30.561Z,7.35
2022-10-17T11:19:06.213Z,5.80
2022-10-17T11:21:44.715Z,6.78
2022-10-17T11:24:19.918Z,5.93
2022-10-17T11:26:54.607Z,6.57
2022-10-17T11:29:28.471Z,5.93
2022-10-17T11:32:00.924Z,6.40
2022-10-17T11:34:33.354Z,4.65
2022-10-17T11:37:06.637Z,8.52
2022-10-17T11:39:42.416Z,5.13
2022-10-17T11:42:13.901Z,5.50
2022-10-17T11:44:44.853Z,5.68
2022-10-17T11:47:22.550Z,8.05
2022-10-17T11:49:53.257Z,8.95
2022-10-17T11:52:55.458Z,4.13
2022-10-17T11:55:24.626Z,6.88
2022-10-17T12:01:15.176Z,11.50
2022-10-17T12:03:54.071Z,8.93
2022-10-17T12:06:37.755Z,10.18
2022-10-17T12:09:13.330Z,11.35
2022-10-17T12:11:53.930Z,7.03
2022-10-17T12:14:40.519Z,6.13
2022-10-17T12:17:34.811Z,8.93
2022-10-17T12:20:36.784Z,8.25
2022-10-17T12:23:24.157Z,7.43
2022-10-17T12:25:57.095Z,8.02
2022-10-17T12:28:31.766Z,7.30
2022-10-17T12:31:03.026Z,9.05
2022-10-17T12:33:36.889Z,7.45
2022-10-17T12:36:50.357Z,8.30
2022-10-17T12:39:54.177Z,7.15
2022-10-17T12:42:49.329Z,6.75
2022-10-17T12:45:48.109Z,7.13
2022-10-17T12:49:02.238Z,7.18
2022-10-17T12:51:38.152Z,7.05
2022-10-17T12:54:13.108Z,7.90
2022-10-17T12:56:42.871Z,7.78
2022-10-17T12:59:17.104Z,9.75
2022-10-17T13:01:47.892Z,8.52
2022-10-17T13:04:16.620Z,7.85
2022-10-17T13:06:48.085Z,8.82
2022-10-17T13:09:25.410Z,9.48
2022-10-17T13:11:54.614Z,11.25
2022-10-17T13:14:25.842Z,9.73
2022-10-17T13:16:55.975Z,9.30
2022-10-17T13:19:26.206Z,8.93
2022-10-17T13:21:56.213Z,8.73
2022-10-17T13:24:29.945Z,14.10
2022-10-17T13:26:58.577Z,9.95
2022-10-17T13:29:29.816Z,10.60
2022-10-17T13:32:01.150Z,10.25
2022-10-17T13:34:29.465Z,9.18
2022-10-17T13:36:59.255Z,9.18
2022-10-17T13:39:44.740Z,12.95
2022-10-17T13:42:23.075Z,9.70
2022-10-17T13:44:52.850Z,10.55
2022-10-17T13:47:23.725Z,9.25
2022-10-17T13:49:55.178Z,10.68
2022-10-17T13:52:26.300Z,10.50
2022-10-17T13:54:54.814Z,12.07
2022-10-17T13:57:25.953Z,10.70
2022-10-17T13:59:57.609Z,12.65
2022-10-17T14:02:27.663Z,13.70
2022-10-17T14:05:19.523Z,13.82
2022-10-17T14:08:10.625Z,14.93
2022-10-17T14:10:41.905Z,12.45
2022-10-17T14:13:22.700Z,10.63
2022-10-17T14:15:55.611Z,12.25
2022-10-17T14:18:26.554Z,12.00
2022-10-17T14:21:32.177Z,13.35
2022-10-17T14:23:45.079Z,13.50
2022-10-17T14:26:16.457Z,15.45
2022-10-17T14:28:47.155Z,12.85
2022-10-17T14:31:32.480Z,14.50
2022-10-17T14:34:02.041Z,14.88
2022-10-17T14:36:36.891Z,14.90
2022-10-17T14:39:11.868Z,13.10
2022-10-17T14:41:45.490Z,17.13
2022-10-17T14:44:21.803Z,15.45
2022-10-17T14:46:59.296Z,13.85
2022-10-17T14:49:37.076Z,12.70
2022-10-17T14:52:39.858Z,12.35
2022-10-17T14:55:23.666Z,14.88
2022-10-17T14:57:51.447Z,12.93
2022-10-17T15:00:21.564Z,16.70
2022-10-17T15:02:52.286Z,12.50
2022-10-17T15:05:20.973Z,18.23
2022-10-17T15:07:48.706Z,14.85
2022-10-17T15:10:28.387Z,16.00
2022-10-17T15:12:59.281Z,15.32
2022-10-17T15:15:38.740Z,13.18
2022-10-17T15:18:08.873Z,17.95
2022-10-17T15:20:36.744Z,13.60
2022-10-17T15:23:04.831Z,14.38
2022-10-17T15:25:34.241Z,16.75
2022-10-17T15:28:02.020Z,16.63
2022-10-17T15:30:32.413Z,16.98
2022-10-17T15:33:00.635Z,14.90
2022-10-17T15:35:30.245Z,17.23
2022-10-17T15:37:58.211Z,13.77
2022-10-17T15:40:28.187Z,13.30
2022-10-17T15:42:56.230Z,12.32
2022-10-17T15:45:24.406Z,13.52
2022-10-17T15:47:54.778Z,16.48
2022-10-17T15:50:23.032Z,15.45
2022-10-17T15:52:52.369Z,12.50
2022-10-17T15:55:21.073Z,12.70
2022-10-17T15:57:49.872Z,14.07
2022-10-17T16:00:21.894Z,14.50
2022-10-17T16:02:50.679Z,15.43
2022-10-17T16:05:23.279Z,14.65
2022-10-17T16:07:53.671Z,13.82
2022-10-17T16:10:23.139Z,13.38
2022-10-17T16:12:51.175Z,13.52
2022-10-17T16:15:22.528Z,16.90
2022-10-17T16:17:50.784Z,13.82
2022-10-17T16:20:19.719Z,16.40
2022-10-17T16:22:48.384Z,16.40
2022-10-17T16:25:23.100Z,16.15
2022-10-17T16:27:53.117Z,15.90
2022-10-17T16:32:56.851Z,15.30
2022-10-17T16:35:27.209Z,16.90
2022-10-17T16:37:56.358Z,17.02
2022-10-17T16:40:25.703Z,27.30
2022-10-17T16:42:53.572Z,20.17
2022-10-17T16:45:23.072Z,18.25
2022-10-17T16:47:52.999Z,17.90
2022-10-17T16:50:20.960Z,19.60
2022-10-17T16:52:48.718Z,16.60
2022-10-17T16:55:18.783Z,17.60
2022-10-17T16:57:49.488Z,17.27
2022-10-17T17:00:18.349Z,16.60
2022-10-17T17:02:48.843Z,16.88
2022-10-17T17:05:17.060Z,14.68
2022-10-17T17:07:44.792Z,16.55
2022-10-17T17:10:12.694Z,15.10
2022-10-17T17:12:40.515Z,15.13
2022-10-17T17:15:10.094Z,15.52
2022-10-17T17:17:49.548Z,15.02
2022-10-17T17:20:18.362Z,16.85
2022-10-17T17:22:46.161Z,16.77
2022-10-17T17:25:14.238Z,21.20
2022-10-17T17:27:42.182Z,16.27
2022-10-17T17:30:12.716Z,15.65
2022-10-17T17:32:40.741Z,18.30
2022-10-17T17:35:09.480Z,18.98
2022-10-17T17:37:37.215Z,15.98
2022-10-17T17:40:06.533Z,16.97
2022-10-17T17:42:34.307Z,16.77
2022-10-17T17:45:02.084Z,16.13
2022-10-17T17:47:31.533Z,18.10
2022-10-17T17:49:59.462Z,21.38
2022-10-17T17:52:27.498Z,15.90
2022-10-17T17:54:55.393Z,19.42
2022-10-17T17:57:23.320Z,17.60
2022-10-17T17:59:52.290Z,17.63
2022-10-17T18:02:20.074Z,21.15
2022-10-17T18:04:49.732Z,17.98
2022-10-17T18:07:17.554Z,18.98
2022-10-17T18:09:45.332Z,17.98
2022-10-17T18:12:13.076Z,22.05
2022-10-17T18:14:40.853Z,20.13
2022-10-17T18:17:08.696Z,19.73
2022-10-17T18:19:36.600Z,21.40
2022-10-17T18:22:05.775Z,21.10
2022-10-17T18:24:33.767Z,24.15
2022-10-17T18:27:01.602Z,20.70
2022-10-17T18:29:29.480Z,22.02
2022-10-17T18:31:57.239Z,22.73
2022-10-17T18:34:24.971Z,20.92
2022-10-17T18:36:53.739Z,24.70
2022-10-17T18:39:23.135Z,23.67
2022-10-17T18:41:50.850Z,23.33
2022-10-17T18:44:18.530Z,25.75
2022-10-17T18:46:46.919Z,20.27
2022-10-17T18:49:18.841Z,21.55
2022-10-17T18:51:47.481Z,21.52
2022-10-17T18:54:20.446Z,21.97
2022-10-17T18:56:51.055Z,21.17
2022-10-17T18:59:19.294Z,21.83
2022-10-17T19:01:47.714Z,21.92
2022-10-17T19:04:15.740Z,23.05
2022-10-17T19:06:44.097Z,25.10
2022-10-17T19:09:13.492Z,24.40
2022-10-17T19:11:42.227Z,19.98
2022-10-17T19:14:13.845Z,20.90
2022-10-17T19:16:43.124Z,21.13
2022-10-17T19:19:14.244Z,20.85
2022-10-17T19:21:42.653Z,21.80
2022-10-17T19:24:14.685Z,18.33
2022-10-17T19:26:43.730Z,17.85
2022-10-17T19:29:14.978Z,16.20
2022-10-17T19:31:43.589Z,15.25
2022-10-17T19:34:12.096Z,12.38
2022-10-17T19:36:40.720Z,11.18
2022-10-17T19:39:14.114Z,8.10
2022-10-17T19:41:41.884Z,10.48
2022-10-17T19:44:10.060Z,9.35
2022-10-17T19:46:39.559Z,8.77
2022-10-17T19:49:07.853Z,8.75
2022-10-17T19:51:35.619Z,11.02
2022-10-17T19:54:03.415Z,10.57
2022-10-17T19:56:37.576Z,11.85
2022-10-17T19:59:06.347Z,11.68
2022-10-17T20:01:36.229Z,10.23
2022-10-17T20:04:06.322Z,11.23
2022-10-17T20:06:34.693Z,12.13
2022-10-17T20:09:02.580Z,13.50
2022-10-17T20:11:30.808Z,13.65
2022-10-17T20:13:58.715Z,17.13
2022-10-17T20:16:28.871Z,15.93
2022-10-17T20:18:58.392Z,16.02
2022-10-17T20:21:31.561Z,15.73
2022-10-17T20:24:01.080Z,17.13
2022-10-17T20:26:38.596Z,18.85
2022-10-17T20:29:13.296Z,15.95
2022-10-17T20:31:42.614Z,14.43
2022-10-17T20:34:12.981Z,12.63
2022-10-17T20:36:42.677Z,14.73
2022-10-17T20:39:12.399Z,12.45
2022-10-17T20:41:40.152Z,12.32
2022-10-17T20:44:08.240Z,11.98
2022-10-17T20:46:37.818Z,10.88
2022-10-17T20:49:08.749Z,10.20
2022-10-17T20:51:37.116Z,11.17
2022-10-17T20:54:06.331Z,12.90
2022-10-17T20:56:35.461Z,12.70
2022-10-17T20:59:05.626Z,9.13
2022-10-17T21:01:35.245Z,8.77
2022-10-17T21:04:26.958Z,8.10
2022-10-17T21:06:52.179Z,8.43
2022-10-17T21:09:22.130Z,7.20
2022-10-17T21:11:54.289Z,7.10
2022-10-17T21:14:23.347Z,7.93
2022-10-17T21:16:52.198Z,7.47
2022-10-17T21:19:21.683Z,8.40
2022-10-17T21:21:49.417Z,7.00
2022-10-17T21:24:20.670Z,7.83
2022-10-17T21:26:55.614Z,8.90
2022-10-17T21:29:24.582Z,11.87
2022-10-17T21:31:52.682Z,11.27
2022-10-17T21:34:22.063Z,11.40
2022-10-17T21:36:50.030Z,10.82
2022-10-17T21:39:18.379Z,9.63
2022-10-17T21:41:46.460Z,8.97
2022-10-17T21:44:17.651Z,8.90
2022-10-17T21:46:45.824Z,11.13
2022-10-17T21:49:15.413Z,14.25
2022-10-17T21:51:44.627Z,10.88
2022-10-17T21:54:12.873Z,12.65
2022-10-17T21:56:41.014Z,12.02
2022-10-17T21:59:09.145Z,12.10
2022-10-17T22:01:40.336Z,10.00
2022-10-17T22:04:11.435Z,13.80
2022-10-17T22:06:41.296Z,10.40
2022-10-17T22:09:11.223Z,11.27
2022-10-17T22:11:39.500Z,10.93
2022-10-17T22:14:08.952Z,10.30
2022-10-17T22:16:40.137Z,8.93
2022-10-17T22:19:09.673Z,11.73
2022-10-17T22:21:38.144Z,12.40
2022-10-17T22:24:08.152Z,12.23
2022-10-17T22:26:37.507Z,15.00
2022-10-17T22:29:06.003Z,10.53
2022-10-17T22:31:34.233Z,10.33
2022-10-17T22:34:05.254Z,10.97
2022-10-17T22:36:33.926Z,12.40
2022-10-17T22:39:01.673Z,10.05
2022-10-17T22:41:29.573Z,12.18
2022-10-17T22:43:57.313Z,12.03
2022-10-17T22:46:25.289Z,11.47
2022-10-17T22:48:52.987Z,14.87
2022-10-17T22:53:54.805Z,13.97
2022-10-17T22:56:23.600Z,13.20
2022-10-17T22:58:52.052Z,11.10
2022-10-17T23:01:22.376Z,11.70
2022-10-17T23:03:50.857Z,9.50
2022-10-17T23:06:18.847Z,14.23
2022-10-17T23:08:48.267Z,13.13
2022-10-17T23:11:16.136Z,12.05
2022-10-17T23:13:44.124Z,13.48
2022-10-17T23:16:11.902Z,9.00
2022-10-17T23:18:40.349Z,11.93
2022-10-17T23:21:08.924Z,11.63
2022-10-17T23:23:37.448Z,12.80
2022-10-17T23:26:08.627Z,11.50
2022-10-17T23:28:36.448Z,15.90
2022-10-17T23:31:12.375Z,12.77
2022-10-17T23:33:41.361Z,13.33
2022-10-17T23:36:10.262Z,14.77
2022-10-17T23:38:38.052Z,14.30
2022-10-17T23:41:07.656Z,20.93
2022-10-17T23:43:35.944Z,17.53
2022-10-17T23:46:04.433Z,18.40
2022-10-17T23:48:32.190Z,17.70
2022-10-17T23:51:00.022Z,21.10
2022-10-17T23:53:28.039Z,17.10
2022-10-17T23:55:55.740Z,20.40
2022-10-17T23:58:24.805Z,18.03
